Terminal Aerodrome Forecast
Issued by NWS Central Illinois

Home | Current Version | Previous Version | Text Only | Print | Product List | Glossary On
Versions: 1 2 3 4 5 6 7 8 9 10 11 12 13 14 15 16 17 18 19
228
FTUS43 KILX 270604 AAA
TAFSPI
TAF AMD
KSPI 270604Z 2706/2806 17010KT P6SM VCTS OVC040CB
     FM270900 18007KT P6SM VCSH BKN045
     FM271500 17013KT P6SM OVC080
     FM272000 18015G22KT P6SM VCTS SCT030CB BKN050
     FM280100 16011KT P6SM VCTS SCT025CB BKN040=

USA.gov is the U.S. government's official web portal to all federal, state and local government web resources and services.